createdAt,value
2019-05-17T00:01:16.511Z,100105.63
2019-05-17T00:03:47.109Z,100110.17
2019-05-17T00:06:17.996Z,100102.20
2019-05-17T00:08:48.650Z,100109.93
2019-05-17T00:11:18.985Z,100101.18
2019-05-17T00:13:49.392Z,100099.86
2019-05-17T00:16:19.793Z,100095.14
2019-05-17T00:18:50.401Z,100099.64
2019-05-17T00:21:21.084Z,100092.29
2019-05-17T00:23:51.731Z,100090.81
2019-05-17T00:26:22.445Z,100076.70
2019-05-17T00:28:52.886Z,100075.77
2019-05-17T00:31:23.176Z,100077.01
2019-05-17T00:33:53.864Z,100075.61
2019-05-17T00:36:26.773Z,100082.41
2019-05-17T00:38:56.961Z,100070.17
2019-05-17T00:41:27.651Z,100062.27
2019-05-17T00:43:58.332Z,100061.97
2019-05-17T00:46:28.645Z,100066.77
2019-05-17T00:48:58.868Z,100066.61
2019-05-17T00:51:30.334Z,100063.42
2019-05-17T00:54:00.908Z,100056.84
2019-05-17T00:56:31.580Z,100047.62
2019-05-17T00:59:03.752Z,100047.32
2019-05-17T01:01:36.380Z,100039.88
2019-05-17T01:04:06.883Z,100040.66
2019-05-17T01:06:37.727Z,100038.86
2019-05-17T01:09:09.125Z,100047.91
2019-05-17T01:11:39.766Z,100041.03
2019-05-17T01:14:10.076Z,100040.66
2019-05-17T01:16:40.682Z,100045.07
2019-05-17T01:19:10.987Z,100052.12
2019-05-17T01:21:41.237Z,100055.30
2019-05-17T01:24:11.470Z,100048.72
2019-05-17T01:26:41.761Z,100049.11
2019-05-17T01:29:12.094Z,100046.64
2019-05-17T01:31:42.263Z,100046.25
2019-05-17T01:34:12.501Z,100045.53
2019-05-17T01:36:42.713Z,100036.53
2019-05-17T01:39:17.687Z,100032.96
2019-05-17T01:41:46.801Z,100028.25
2019-05-17T01:44:17.641Z,100026.25
2019-05-17T01:46:49.401Z,100033.69
2019-05-17T01:49:19.986Z,100036.66
2019-05-17T01:51:50.308Z,100024.97
2019-05-17T01:54:22.059Z,100029.47
2019-05-17T01:56:52.667Z,100027.77
2019-05-17T01:59:22.960Z,100022.50
2019-05-17T02:01:56.555Z,100026.16
2019-05-17T02:04:26.995Z,100031.34
2019-05-17T02:06:57.625Z,100027.98
2019-05-17T02:09:37.268Z,100027.82
2019-05-17T02:12:00.390Z,100016.27
2019-05-17T02:14:30.694Z,100014.02
2019-05-17T02:17:00.916Z,100012.87
2019-05-17T02:19:31.205Z,100008.91
2019-05-17T02:22:01.422Z,100008.06
2019-05-17T02:24:31.673Z,100008.91
2019-05-17T02:27:01.919Z,100014.48
2019-05-17T02:29:32.275Z,100018.44
2019-05-17T02:32:03.813Z,100012.70
2019-05-17T02:34:34.451Z,100005.56
2019-05-17T02:37:04.666Z,100013.16
2019-05-17T02:39:51.954Z,100016.65
2019-05-17T02:42:06.893Z,100019.53
2019-05-17T02:44:37.138Z,100022.55
2019-05-17T02:47:07.390Z,100022.85
2019-05-17T02:49:38.004Z,100024.30
2019-05-17T02:52:08.660Z,100021.53
2019-05-17T02:54:39.311Z,100024.80
2019-05-17T02:57:09.623Z,100031.00
2019-05-17T02:59:39.848Z,100024.25
2019-05-17T03:02:12.636Z,100026.50
2019-05-17T03:04:43.419Z,100016.14
2019-05-17T03:07:14.729Z,100015.92
2019-05-17T03:09:45.037Z,100012.27
2019-05-17T03:12:15.250Z,100019.87
2019-05-17T03:14:45.501Z,100017.23
2019-05-17T03:17:15.729Z,100020.72
2019-05-17T03:19:45.990Z,100022.50
2019-05-17T03:22:16.581Z,100023.27
2019-05-17T03:24:46.870Z,100017.84
2019-05-17T03:27:17.086Z,100016.27
2019-05-17T03:29:47.359Z,100012.53
2019-05-17T03:32:19.603Z,100014.32
2019-05-17T03:34:55.898Z,100004.38
2019-05-17T03:37:29.934Z,100011.47
2019-05-17T03:39:55.253Z,100016.69
2019-05-17T03:42:25.655Z,100017.28
2019-05-17T03:44:56.265Z,100021.17
2019-05-17T03:47:26.552Z,100017.69
2019-05-17T03:49:56.845Z,100016.55
2019-05-17T03:52:27.155Z,100014.12
2019-05-17T03:54:57.401Z,100014.50
2019-05-17T03:57:27.619Z,100019.97
2019-05-17T03:59:57.872Z,100020.83
2019-05-17T04:02:28.327Z,100019.30
2019-05-17T04:04:58.558Z,100024.86
2019-05-17T04:07:32.842Z,100029.58
2019-05-17T04:10:04.458Z,100032.63
2019-05-17T04:12:35.177Z,100029.34
2019-05-17T04:15:08.412Z,100034.61
2019-05-17T04:17:39.049Z,100034.81
2019-05-17T04:20:09.429Z,100035.86
2019-05-17T04:22:43.683Z,100042.10
2019-05-17T04:25:13.617Z,100035.51
2019-05-17T04:27:45.821Z,100040.19
2019-05-17T04:30:18.351Z,100036.78
2019-05-17T04:32:52.409Z,100031.61
2019-05-17T04:35:23.237Z,100035.29
2019-05-17T04:37:53.426Z,100038.61
2019-05-17T04:40:23.716Z,100036.92
2019-05-17T04:42:53.956Z,100038.79
2019-05-17T04:45:24.588Z,100035.20
2019-05-17T04:47:55.258Z,100033.13
2019-05-17T04:50:25.937Z,100036.57
2019-05-17T04:52:56.577Z,100032.67
2019-05-17T04:55:27.291Z,100030.22
2019-05-17T04:57:57.998Z,100039.70
2019-05-17T05:00:28.698Z,100033.87
2019-05-17T05:02:59.337Z,100039.55
2019-05-17T05:05:32.785Z,100043.91
2019-05-17T05:08:03.695Z,100046.48
2019-05-17T05:10:37.803Z,100049.19
2019-05-17T05:13:05.772Z,100046.09
2019-05-17T05:15:44.588Z,100053.97
2019-05-17T05:18:15.180Z,100062.08
2019-05-17T05:20:48.432Z,100058.61
2019-05-17T05:23:23.830Z,100064.76
2019-05-17T05:25:54.233Z,100052.96
2019-05-17T05:28:52.669Z,100057.95
2019-05-17T05:31:23.836Z,100059.01
2019-05-17T05:33:57.302Z,100062.60
2019-05-17T05:36:27.943Z,100065.65
2019-05-17T05:39:02.209Z,100060.09
2019-05-17T05:41:33.647Z,100058.38
2019-05-17T05:44:04.363Z,100068.55
2019-05-17T05:46:35.360Z,100067.97
2019-05-17T05:49:05.680Z,100070.27
2019-05-17T05:51:35.899Z,100070.14
2019-05-17T05:54:07.285Z,100068.20
2019-05-17T05:56:37.627Z,100073.50
2019-05-17T05:59:08.192Z,100077.34
2019-05-17T06:01:38.932Z,100072.16
2019-05-17T06:04:11.618Z,100077.27
2019-05-17T06:06:41.825Z,100077.47
2019-05-17T06:09:12.436Z,100079.66
2019-05-17T06:11:43.065Z,100089.11
2019-05-17T06:14:13.500Z,100083.95
2019-05-17T06:16:44.014Z,100090.05
2019-05-17T06:19:14.672Z,100079.34
2019-05-17T06:21:44.961Z,100070.39
2019-05-17T06:24:15.558Z,100074.97
2019-05-17T06:26:46.235Z,100076.66
2019-05-17T06:29:16.909Z,100075.59
2019-05-17T06:31:47.206Z,100074.62
2019-05-17T06:34:19.090Z,100082.67
2019-05-17T06:36:49.775Z,100085.24
2019-05-17T06:39:22.425Z,100099.58
2019-05-17T06:41:52.796Z,100088.58
2019-05-17T06:44:23.105Z,100084.86
2019-05-17T06:46:53.344Z,100086.76
2019-05-17T06:49:23.616Z,100087.82
2019-05-17T06:51:54.180Z,100092.96
2019-05-17T06:54:24.834Z,100098.09
2019-05-17T06:56:55.505Z,100106.53
2019-05-17T06:59:25.803Z,100103.50
2019-05-17T07:01:59.702Z,100111.67
2019-05-17T07:04:29.950Z,100109.27
2019-05-17T07:07:20.686Z,100115.77
2019-05-17T07:09:51.843Z,100122.31
2019-05-17T07:12:22.087Z,100124.14
2019-05-17T07:14:58.362Z,100126.61
2019-05-17T07:17:30.388Z,100127.59
2019-05-17T07:20:01.099Z,100131.85
2019-05-17T07:22:32.758Z,100125.05
2019-05-17T07:25:03.433Z,100123.81
2019-05-17T07:27:45.419Z,100126.84
2019-05-17T07:30:14.418Z,100134.40
2019-05-17T07:32:45.672Z,100144.81
2019-05-17T07:35:15.971Z,100172.09
2019-05-17T07:37:46.587Z,100178.97
2019-05-17T07:40:19.688Z,100131.27
2019-05-17T07:42:50.112Z,100134.85
2019-05-17T07:45:20.915Z,100142.02
2019-05-17T07:47:51.209Z,100143.47
2019-05-17T07:50:22.007Z,100166.16
2019-05-17T07:52:53.658Z,100166.77
2019-05-17T07:55:23.955Z,100141.44
2019-05-17T07:57:56.243Z,100143.20
2019-05-17T08:00:26.513Z,100157.89
2019-05-17T08:02:59.775Z,100131.45
2019-05-17T08:05:29.648Z,100152.32
2019-05-17T08:08:00.451Z,100138.73
2019-05-17T08:10:30.763Z,100125.30
2019-05-17T08:13:01.055Z,100127.34
2019-05-17T08:15:31.341Z,100130.58
2019-05-17T08:18:01.981Z,100121.52
2019-05-17T08:20:32.443Z,100114.78
2019-05-17T08:23:05.141Z,100110.02
2019-05-17T08:25:49.696Z,100115.39
2019-05-17T08:28:10.672Z,100108.31
2019-05-17T08:30:40.901Z,100113.55
2019-05-17T08:33:12.855Z,100127.89
2019-05-17T08:35:59.756Z,100106.97
2019-05-17T08:38:30.685Z,100098.03
2019-05-17T08:41:03.172Z,100098.61
2019-05-17T08:43:42.715Z,100094.09
2019-05-17T08:46:06.045Z,100103.84
2019-05-17T08:48:36.755Z,100106.14
2019-05-17T08:51:07.483Z,100098.62
2019-05-17T08:53:39.934Z,100099.48
2019-05-17T08:56:10.593Z,100098.78
2019-05-17T08:58:41.227Z,100110.42
2019-05-17T09:01:12.094Z,100097.87
2019-05-17T09:03:42.786Z,100112.02
2019-05-17T09:06:13.100Z,100123.08
2019-05-17T09:08:43.401Z,100128.30
2019-05-17T09:11:14.132Z,100106.07
2019-05-17T09:13:55.572Z,100118.02
2019-05-17T09:16:19.652Z,100098.44
2019-05-17T09:18:50.322Z,100071.75
2019-05-17T09:21:21.961Z,100067.84
2019-05-17T09:23:52.479Z,100062.97
2019-05-17T09:26:23.078Z,100061.95
2019-05-17T09:28:53.431Z,100068.98
2019-05-17T09:31:23.698Z,100073.28
2019-05-17T09:33:53.948Z,100077.61
2019-05-17T09:36:24.529Z,100052.08
2019-05-17T09:38:54.813Z,100070.55
2019-05-17T09:41:25.041Z,100057.42
2019-05-17T09:44:08.654Z,100060.37
2019-05-17T09:46:30.063Z,100059.94
2019-05-17T09:49:01.101Z,100065.17
2019-05-17T09:51:32.049Z,100055.08
2019-05-17T09:54:02.389Z,100051.06
2019-05-17T09:56:33.722Z,100055.59
2019-05-17T09:59:04.395Z,100061.34
2019-05-17T10:01:34.808Z,100066.17
2019-05-17T10:04:05.556Z,100072.88
2019-05-17T10:06:36.210Z,100075.83
2019-05-17T10:09:09.518Z,100076.77
2019-05-17T10:11:41.141Z,100084.42
2019-05-17T10:14:24.581Z,100079.33
2019-05-17T10:16:43.717Z,100070.97
2019-05-17T10:19:14.429Z,100068.50
2019-05-17T10:21:44.779Z,100067.80
2019-05-17T10:24:15.384Z,100062.49
2019-05-17T10:26:45.733Z,100061.13
2019-05-17T10:29:16.332Z,100070.92
2019-05-17T10:31:46.968Z,100061.41
2019-05-17T10:34:20.210Z,100075.17
2019-05-17T10:36:50.647Z,100050.09
2019-05-17T10:39:21.725Z,100075.34
2019-05-17T10:41:52.408Z,100071.51
2019-05-17T10:44:23.054Z,100077.80
2019-05-17T10:46:55.149Z,100078.08
2019-05-17T10:49:25.816Z,100070.21
2019-05-17T10:51:56.138Z,100073.22
2019-05-17T10:54:26.724Z,100072.55
2019-05-17T10:56:59.702Z,100073.73
2019-05-17T10:59:29.713Z,100073.58
2019-05-17T11:02:00.421Z,100070.89
2019-05-17T11:04:31.165Z,100066.65
2019-05-17T11:07:01.480Z,100064.19
2019-05-17T11:09:31.757Z,100073.38
2019-05-17T11:12:02.287Z,100066.23
2019-05-17T11:14:32.972Z,100061.25
2019-05-17T11:17:03.882Z,100065.25
2019-05-17T11:19:34.311Z,100069.67
2019-05-17T11:22:06.036Z,100067.90
2019-05-17T11:24:38.541Z,100073.32
2019-05-17T11:27:10.119Z,100073.95
2019-05-17T11:29:40.841Z,100078.28
2019-05-17T11:32:11.267Z,100078.72
2019-05-17T11:34:42.037Z,100077.34
2019-05-17T11:37:12.723Z,100082.39
2019-05-17T11:39:43.467Z,100078.95
2019-05-17T11:42:14.782Z,100080.56
2019-05-17T11:44:47.576Z,100081.08
2019-05-17T11:47:18.245Z,100083.42
2019-05-17T11:49:49.244Z,100082.55
2019-05-17T11:52:20.032Z,100084.70
2019-05-17T11:54:52.220Z,100084.64
2019-05-17T11:57:23.005Z,100077.39
2019-05-17T11:59:53.325Z,100084.74
2019-05-17T12:02:24.784Z,100089.10
2019-05-17T12:04:55.414Z,100080.20
2019-05-17T12:07:25.771Z,100075.48
2019-05-17T12:09:57.712Z,100080.88
2019-05-17T12:12:29.919Z,100079.48
2019-05-17T12:15:02.204Z,100071.19
2019-05-17T12:17:32.623Z,100073.27
2019-05-17T12:20:05.026Z,100074.78
2019-05-17T12:22:35.323Z,100074.16
2019-05-17T12:25:08.691Z,100083.22
2019-05-17T12:27:40.720Z,100078.57
2019-05-17T12:30:15.022Z,100071.89
2019-05-17T12:32:45.047Z,100070.27
2019-05-17T12:35:17.229Z,100073.64
2019-05-17T12:37:58.967Z,100076.47
2019-05-17T12:40:29.261Z,100078.50
2019-05-17T12:46:19.749Z,100083.69
2019-05-17T12:48:50.052Z,100072.05
2019-05-17T12:51:21.707Z,100074.50
2019-05-17T12:53:55.185Z,100081.73
2019-05-17T12:56:25.467Z,100074.52
2019-05-17T12:58:55.842Z,100074.10
2019-05-17T13:01:26.441Z,100081.47
2019-05-17T13:03:56.727Z,100081.13
2019-05-17T13:06:27.310Z,100073.66
2019-05-17T13:11:47.899Z,100076.63
2019-05-17T13:12:29.177Z,100070.48
2019-05-17T13:14:18.547Z,100088.01
2019-05-17T13:16:50.708Z,100081.83
2019-05-17T13:19:25.222Z,100079.91
2019-05-17T13:21:54.759Z,100083.43
2019-05-17T13:24:25.504Z,100087.52
2019-05-17T13:26:57.784Z,100086.56
2019-05-17T13:29:28.475Z,100097.25
2019-05-17T13:31:59.127Z,100102.49
2019-05-17T13:34:29.818Z,100112.88
2019-05-17T13:37:00.310Z,100109.98
2019-05-17T13:39:30.532Z,100118.11
2019-05-17T13:42:00.998Z,100107.34
2019-05-17T13:44:32.808Z,100115.15
2019-05-17T13:47:04.588Z,100116.70
2019-05-17T13:49:35.205Z,100127.09
2019-05-17T13:52:05.600Z,100122.17
2019-05-17T13:54:37.123Z,100119.78
2019-05-17T13:57:11.169Z,100120.18
2019-05-17T13:59:40.080Z,100131.16
2019-05-17T14:02:10.295Z,100128.84
2019-05-17T14:04:40.558Z,100129.54
2019-05-17T14:07:10.774Z,100139.55
2019-05-17T14:12:56.739Z,100128.94
2019-05-17T14:15:27.126Z,100127.97
2019-05-17T14:17:57.418Z,100125.41
2019-05-17T14:20:27.995Z,100125.64
2019-05-17T14:22:58.302Z,100132.49
2019-05-17T14:25:28.888Z,100129.31
2019-05-17T14:28:01.807Z,100133.98
2019-05-17T14:30:32.081Z,100139.45
2019-05-17T14:33:02.389Z,100144.22
2019-05-17T14:35:32.997Z,100142.94
2019-05-17T14:38:03.332Z,100145.23
2019-05-17T14:41:04.140Z,100147.06
2019-05-17T14:43:06.036Z,100142.64
2019-05-17T14:45:36.601Z,100145.27
2019-05-17T14:48:06.905Z,100138.42
2019-05-17T14:50:37.577Z,100150.92
2019-05-17T14:53:08.294Z,100149.53
2019-05-17T14:55:38.569Z,100142.30
2019-05-17T14:58:09.428Z,100140.73
2019-05-17T15:00:39.778Z,100150.89
2019-05-17T15:03:13.758Z,100139.59
2019-05-17T15:05:44.458Z,100137.50
2019-05-17T15:08:14.886Z,100136.74
2019-05-17T15:10:46.655Z,100129.19
2019-05-17T15:13:17.311Z,100137.83
2019-05-17T15:15:48.181Z,100124.63
2019-05-17T15:18:18.630Z,100128.22
2019-05-17T15:20:48.920Z,100123.07
2019-05-17T15:23:19.175Z,100126.13
2019-05-17T15:25:49.450Z,100120.35
2019-05-17T15:28:20.028Z,100122.30
2019-05-17T15:30:50.734Z,100112.16
2019-05-17T15:33:21.021Z,100114.75
2019-05-17T15:35:51.276Z,100114.38
2019-05-17T15:38:21.873Z,100109.88
2019-05-17T15:40:53.397Z,100112.02
2019-05-17T15:43:24.500Z,100111.30
2019-05-17T15:45:54.745Z,100111.06
2019-05-17T15:48:25.158Z,100109.73
2019-05-17T15:51:00.530Z,100113.61
2019-05-17T15:53:31.178Z,100111.57
2019-05-17T15:56:01.493Z,100109.78
2019-05-17T15:58:32.139Z,100114.27
2019-05-17T16:01:02.439Z,100117.77
2019-05-17T16:03:33.025Z,100111.43
2019-05-17T16:06:04.346Z,100117.33
2019-05-17T16:08:34.637Z,100108.12
2019-05-17T16:11:04.970Z,100110.78
2019-05-17T16:13:35.200Z,100111.53
2019-05-17T16:16:05.554Z,100112.23
2019-05-17T16:18:37.215Z,100112.01
2019-05-17T16:21:07.897Z,100111.05
2019-05-17T16:23:38.514Z,100111.55
2019-05-17T16:26:08.849Z,100113.86
2019-05-17T16:28:39.106Z,100108.45
2019-05-17T16:31:10.341Z,100113.90
2019-05-17T16:33:40.927Z,100104.71
2019-05-17T16:36:12.404Z,100111.72
2019-05-17T16:38:44.331Z,100112.92
2019-05-17T16:41:14.998Z,100111.59
2019-05-17T16:43:45.356Z,100109.42
2019-05-17T16:46:15.812Z,100107.36
2019-05-17T16:48:46.428Z,100100.47
2019-05-17T16:51:17.089Z,100101.67
2019-05-17T16:53:47.414Z,100102.14
2019-05-17T16:56:18.047Z,100105.41
2019-05-17T16:58:49.981Z,100099.36
2019-05-17T17:01:20.694Z,100109.98
2019-05-17T17:03:51.024Z,100103.69
2019-05-17T17:06:21.702Z,100111.40
2019-05-17T17:08:53.131Z,100101.03
2019-05-17T17:11:23.453Z,100103.42
2019-05-17T17:13:53.820Z,100104.49
2019-05-17T17:16:24.043Z,100112.44
2019-05-17T17:18:54.297Z,100105.05
2019-05-17T17:21:24.537Z,100105.88
2019-05-17T17:23:54.775Z,100111.64
2019-05-17T17:26:25.002Z,100112.83
2019-05-17T17:28:55.744Z,100108.71
2019-05-17T17:31:26.156Z,100108.09
2019-05-17T17:33:56.977Z,100111.92
2019-05-17T17:36:27.706Z,100110.46
2019-05-17T17:38:58.408Z,100106.34
2019-05-17T17:41:29.120Z,100103.43
2019-05-17T17:43:59.549Z,100102.70
2019-05-17T17:46:32.887Z,100109.44
2019-05-17T17:49:03.576Z,100114.72
2019-05-17T17:51:33.890Z,100114.20
2019-05-17T17:54:04.207Z,100114.28
2019-05-17T17:56:34.796Z,100109.56
2019-05-17T17:59:05.549Z,100110.77
2019-05-17T18:01:36.741Z,100114.45
2019-05-17T18:04:07.622Z,100114.01
2019-05-17T18:06:37.879Z,100119.07
2019-05-17T18:09:08.907Z,100115.69
2019-05-17T18:11:39.186Z,100117.98
2019-05-17T18:14:13.429Z,100120.42
2019-05-17T18:16:42.242Z,100128.47
2019-05-17T18:19:12.556Z,100135.75
2019-05-17T18:21:43.228Z,100136.01
2019-05-17T18:24:17.606Z,100136.46
2019-05-17T18:26:47.496Z,100139.55
2019-05-17T18:29:17.928Z,100140.41
2019-05-17T18:31:48.197Z,100140.05
2019-05-17T18:34:18.776Z,100144.64
2019-05-17T18:36:49.111Z,100145.64
2019-05-17T18:39:20.015Z,100154.17
2019-05-17T18:41:50.747Z,100153.44
2019-05-17T18:44:27.773Z,100153.82
2019-05-17T18:46:54.664Z,100158.66
2019-05-17T18:49:25.223Z,100167.85
2019-05-17T18:51:55.532Z,100166.34
2019-05-17T18:54:26.202Z,100169.23
2019-05-17T18:56:56.533Z,100174.44
2019-05-17T18:59:26.778Z,100176.88
2019-05-17T19:01:57.363Z,100177.60
2019-05-17T19:04:29.631Z,100176.45
2019-05-17T19:06:59.969Z,100174.47
2019-05-17T19:09:30.587Z,100180.75
2019-05-17T19:12:00.911Z,100182.98
2019-05-17T19:14:42.428Z,100182.58
2019-05-17T19:17:03.032Z,100180.96
2019-05-17T19:19:33.608Z,100174.25
2019-05-17T19:22:04.324Z,100179.14
2019-05-17T19:24:34.622Z,100180.86
2019-05-17T19:27:05.223Z,100176.48
2019-05-17T19:29:35.972Z,100169.68
2019-05-17T19:32:06.349Z,100173.89
2019-05-17T19:34:36.592Z,100163.30
2019-05-17T19:37:06.894Z,100164.58
2019-05-17T19:39:37.137Z,100167.50
2019-05-17T19:42:07.260Z,100165.88
2019-05-17T19:44:37.853Z,100161.80
2019-05-17T19:47:08.494Z,100169.02
2019-05-17T19:49:38.811Z,100164.30
2019-05-17T19:52:09.172Z,100169.36
2019-05-17T19:54:39.766Z,100174.88
2019-05-17T19:57:10.432Z,100178.36
2019-05-17T19:59:41.116Z,100173.50
2019-05-17T20:02:11.785Z,100170.81
2019-05-17T20:04:42.535Z,100166.72
2019-05-17T20:07:13.114Z,100169.25
2019-05-17T20:09:43.851Z,100170.42
2019-05-17T20:12:14.528Z,100168.03
2019-05-17T20:14:45.479Z,100168.81
2019-05-17T20:17:16.183Z,100169.37
2019-05-17T20:19:46.886Z,100174.71
2019-05-17T20:22:18.847Z,100171.61
2019-05-17T20:24:51.690Z,100166.66
2019-05-17T20:27:21.998Z,100166.80
2019-05-17T20:29:52.620Z,100163.17
2019-05-17T20:32:23.345Z,100158.61
2019-05-17T20:34:53.662Z,100160.98
2019-05-17T20:37:23.932Z,100165.72
2019-05-17T20:39:54.173Z,100160.03
2019-05-17T20:42:24.780Z,100158.95
2019-05-17T20:44:57.924Z,100156.16
2019-05-17T20:47:28.251Z,100163.05
2019-05-17T20:49:58.531Z,100159.65
2019-05-17T20:52:29.098Z,100165.91
2019-05-17T20:54:59.532Z,100173.45
2019-05-17T20:57:30.101Z,100169.61
2019-05-17T21:00:00.409Z,100167.44
2019-05-17T21:02:32.618Z,100162.01
2019-05-17T21:05:03.223Z,100175.56
2019-05-17T21:07:33.456Z,100174.55
2019-05-17T21:10:05.390Z,100182.59
2019-05-17T21:12:35.698Z,100177.64
2019-05-17T21:15:10.604Z,100179.42
2019-05-17T21:17:40.069Z,100178.71
2019-05-17T21:20:13.199Z,100173.52
2019-05-17T21:22:43.936Z,100170.13
2019-05-17T21:25:14.391Z,100175.37
2019-05-17T21:27:45.683Z,100172.30
2019-05-17T21:30:17.019Z,100173.31
2019-05-17T21:32:47.241Z,100177.56
2019-05-17T21:35:17.900Z,100176.14
2019-05-17T21:37:48.202Z,100170.02
2019-05-17T21:40:19.451Z,100170.73
2019-05-17T21:42:51.616Z,100170.27
2019-05-17T21:45:22.000Z,100165.54
2019-05-17T21:47:52.217Z,100166.31
2019-05-17T21:50:23.728Z,100172.73
2019-05-17T21:52:56.876Z,100171.03
2019-05-17T21:55:28.943Z,100179.09
2019-05-17T21:58:02.250Z,100178.55
2019-05-17T22:00:54.270Z,100177.39
2019-05-17T22:03:25.178Z,100177.78
2019-05-17T22:05:55.951Z,100180.03
2019-05-17T22:08:26.645Z,100179.34
2019-05-17T22:10:57.311Z,100172.91
2019-05-17T22:13:27.627Z,100172.38
2019-05-17T22:15:57.874Z,100178.52
2019-05-17T22:18:28.612Z,100164.94
2019-05-17T22:20:58.915Z,100157.01
2019-05-17T22:23:29.209Z,100153.69
2019-05-17T22:25:59.451Z,100143.16
2019-05-17T22:28:29.683Z,100140.22
2019-05-17T22:31:00.352Z,100142.96
2019-05-17T22:33:31.089Z,100145.13
2019-05-17T22:36:01.762Z,100146.42
2019-05-17T22:38:32.094Z,100141.62
2019-05-17T22:41:02.700Z,100134.56
2019-05-17T22:43:33.039Z,100127.83
2019-05-17T22:46:03.285Z,100136.28
2019-05-17T22:48:33.501Z,100134.58
2019-05-17T22:51:04.150Z,100133.03
2019-05-17T22:53:34.832Z,100130.09
2019-05-17T22:56:05.841Z,100139.66
2019-05-17T22:58:36.549Z,100137.51
2019-05-17T23:01:07.169Z,100149.31
2019-05-17T23:03:37.476Z,100149.63
2019-05-17T23:06:08.203Z,100149.72
2019-05-17T23:08:38.866Z,100127.19
2019-05-17T23:11:09.181Z,100136.39
2019-05-17T23:13:39.398Z,100149.67
2019-05-17T23:16:11.611Z,100135.39
2019-05-17T23:18:43.903Z,100143.56
2019-05-17T23:21:14.718Z,100146.51
2019-05-17T23:23:45.361Z,100147.22
2019-05-17T23:26:15.709Z,100146.13
2019-05-17T23:28:46.351Z,100147.38
2019-05-17T23:31:16.677Z,100156.70
2019-05-17T23:33:47.259Z,100154.51
2019-05-17T23:36:17.572Z,100151.45
2019-05-17T23:38:48.164Z,100152.97
2019-05-17T23:41:18.822Z,100154.03
2019-05-17T23:43:49.120Z,100158.50
2019-05-17T23:46:19.763Z,100152.86
2019-05-17T23:48:50.398Z,100151.80
2019-05-17T23:51:20.727Z,100147.86
2019-05-17T23:53:51.474Z,100154.56
2019-05-17T23:56:22.138Z,100152.60
2019-05-17T23:58:52.439Z,100149.79
